sensor_id;sensor_type;location;lat;lon;timestamp;P1;durP1;ratioP1;P2;durP2;ratioP2
16430;SDS011;8325;49.284;7.238;2024-02-21T05:00:56;9.85;;;4.65;;
16430;SDS011;8325;49.284;7.238;2024-02-21T05:05:08;10.43;;;4.90;;
16430;SDS011;8325;49.284;7.238;2024-02-21T05:09:21;8.70;;;4.50;;
16430;SDS011;8325;49.284;7.238;2024-02-21T05:13:32;10.35;;;4.40;;
16430;SDS011;8325;49.284;7.238;2024-02-21T05:17:44;9.25;;;4.53;;
16430;SDS011;8325;49.284;7.238;2024-02-21T05:21:56;9.05;;;4.60;;
16430;SDS011;8325;49.284;7.238;2024-02-21T05:26:08;9.52;;;3.88;;
16430;SDS011;8325;49.284;7.238;2024-02-21T05:30:20;13.90;;;4.40;;
16430;SDS011;8325;49.284;7.238;2024-02-21T05:34:31;9.55;;;4.57;;
16430;SDS011;8325;49.284;7.238;2024-02-21T05:38:43;7.55;;;4.28;;
16430;SDS011;8325;49.284;7.238;2024-02-21T05:42:55;8.15;;;4.20;;
16430;SDS011;8325;49.284;7.238;2024-02-21T05:47:07;10.68;;;4.63;;
16430;SDS011;8325;49.284;7.238;2024-02-21T05:51:21;10.40;;;4.25;;
16430;SDS011;8325;49.284;7.238;2024-02-21T05:55:33;6.13;;;3.75;;
16430;SDS011;8325;49.284;7.238;2024-02-21T05:59:44;8.63;;;4.28;;
16430;SDS011;8325;49.284;7.238;2024-02-21T06:03:56;9.10;;;4.00;;
16430;SDS011;8325;49.284;7.238;2024-02-21T06:08:08;9.13;;;3.95;;
16430;SDS011;8325;49.284;7.238;2024-02-21T06:12:20;7.72;;;4.20;;
16430;SDS011;8325;49.284;7.238;2024-02-21T06:16:32;10.23;;;4.97;;
16430;SDS011;8325;49.284;7.238;2024-02-21T06:20:44;9.20;;;4.40;;
16430;SDS011;8325;49.284;7.238;2024-02-21T06:24:57;9.98;;;4.70;;
16430;SDS011;8325;49.284;7.238;2024-02-21T06:29:08;9.05;;;3.85;;
16430;SDS011;8325;49.284;7.238;2024-02-21T06:33:20;9.85;;;4.78;;
16430;SDS011;8325;49.284;7.238;2024-02-21T06:37:36;9.75;;;4.47;;
16430;SDS011;8325;49.284;7.238;2024-02-21T06:41:49;9.65;;;4.53;;
16430;SDS011;8325;49.284;7.238;2024-02-21T06:46:05;8.45;;;4.75;;
16430;SDS011;8325;49.284;7.238;2024-02-21T06:50:16;8.95;;;4.45;;
16430;SDS011;8325;49.284;7.238;2024-02-21T06:54:28;8.63;;;4.75;;
16430;SDS011;8325;49.284;7.238;2024-02-21T06:58:40;11.73;;;4.30;;
16430;SDS011;8325;49.284;7.238;2024-02-21T07:02:51;8.55;;;4.55;;
16430;SDS011;8325;49.284;7.238;2024-02-21T07:07:03;22.45;;;11.95;;
16430;SDS011;8325;49.284;7.238;2024-02-21T07:11:15;12.65;;;6.45;;
16430;SDS011;8325;49.284;7.238;2024-02-21T07:15:26;9.13;;;4.38;;
16430;SDS011;8325;49.284;7.238;2024-02-21T07:19:39;8.98;;;5.22;;
16430;SDS011;8325;49.284;7.238;2024-02-21T07:23:52;8.95;;;5.13;;
16430;SDS011;8325;49.284;7.238;2024-02-21T07:28:03;10.77;;;4.35;;
16430;SDS011;8325;49.284;7.238;2024-02-21T07:32:15;10.13;;;4.10;;
16430;SDS011;8325;49.284;7.238;2024-02-21T07:36:30;8.05;;;4.22;;
16430;SDS011;8325;49.284;7.238;2024-02-21T07:40:42;11.15;;;4.03;;
16430;SDS011;8325;49.284;7.238;2024-02-21T07:44:55;12.57;;;4.30;;
16430;SDS011;8325;49.284;7.238;2024-02-21T07:49:08;9.38;;;4.25;;
16430;SDS011;8325;49.284;7.238;2024-02-21T07:53:20;9.50;;;5.38;;
16430;SDS011;8325;49.284;7.238;2024-02-21T07:57:31;7.75;;;4.57;;
16430;SDS011;8325;49.284;7.238;2024-02-21T08:01:43;8.05;;;4.50;;
16430;SDS011;8325;49.284;7.238;2024-02-21T08:05:56;10.35;;;4.70;;
16430;SDS011;8325;49.284;7.238;2024-02-21T08:10:07;6.72;;;3.90;;
16430;SDS011;8325;49.284;7.238;2024-02-21T08:14:19;11.20;;;4.68;;
16430;SDS011;8325;49.284;7.238;2024-02-21T08:18:31;9.93;;;3.95;;
16430;SDS011;8325;49.284;7.238;2024-02-21T08:22:45;7.88;;;3.88;;
16430;SDS011;8325;49.284;7.238;2024-02-21T08:26:56;8.25;;;4.03;;
16430;SDS011;8325;49.284;7.238;2024-02-21T08:31:08;6.13;;;3.63;;
16430;SDS011;8325;49.284;7.238;2024-02-21T08:35:20;8.68;;;3.70;;
16430;SDS011;8325;49.284;7.238;2024-02-21T08:39:34;7.35;;;4.03;;
16430;SDS011;8325;49.284;7.238;2024-02-21T08:43:46;11.27;;;3.60;;
16430;SDS011;8325;49.284;7.238;2024-02-21T08:47:57;11.13;;;3.60;;
16430;SDS011;8325;49.284;7.238;2024-02-21T08:52:09;6.13;;;3.97;;
16430;SDS011;8325;49.284;7.238;2024-02-21T08:56:21;8.77;;;3.88;;
16430;SDS011;8325;49.284;7.238;2024-02-21T09:00:32;7.45;;;3.75;;
16430;SDS011;8325;49.284;7.238;2024-02-21T09:04:44;10.60;;;3.80;;
16430;SDS011;8325;49.284;7.238;2024-02-21T09:08:56;6.38;;;3.83;;
16430;SDS011;8325;49.284;7.238;2024-02-21T09:13:09;5.45;;;3.30;;
16430;SDS011;8325;49.284;7.238;2024-02-21T09:17:20;8.18;;;3.80;;
16430;SDS011;8325;49.284;7.238;2024-02-21T09:21:32;7.45;;;3.70;;
16430;SDS011;8325;49.284;7.238;2024-02-21T09:25:43;10.45;;;3.72;;
16430;SDS011;8325;49.284;7.238;2024-02-21T09:29:55;8.40;;;3.30;;
16430;SDS011;8325;49.284;7.238;2024-02-21T09:34:07;6.82;;;3.55;;
16430;SDS011;8325;49.284;7.238;2024-02-21T09:38:19;9.30;;;3.67;;
16430;SDS011;8325;49.284;7.238;2024-02-21T09:42:39;7.97;;;3.47;;
16430;SDS011;8325;49.284;7.238;2024-02-21T09:46:56;7.10;;;3.50;;
16430;SDS011;8325;49.284;7.238;2024-02-21T09:51:15;6.57;;;3.58;;
16430;SDS011;8325;49.284;7.238;2024-02-21T09:55:31;9.77;;;3.80;;
16430;SDS011;8325;49.284;7.238;2024-02-21T09:59:45;6.22;;;3.10;;
16430;SDS011;8325;49.284;7.238;2024-02-21T10:03:57;6.72;;;3.22;;
16430;SDS011;8325;49.284;7.238;2024-02-21T10:08:13;8.88;;;3.20;;
16430;SDS011;8325;49.284;7.238;2024-02-21T10:12:25;5.68;;;3.42;;
16430;SDS011;8325;49.284;7.238;2024-02-21T10:16:37;11.15;;;3.33;;
16430;SDS011;8325;49.284;7.238;2024-02-21T10:20:59;9.63;;;3.63;;
16430;SDS011;8325;49.284;7.238;2024-02-21T10:25:11;6.78;;;3.22;;
16430;SDS011;8325;49.284;7.238;2024-02-21T10:29:23;5.45;;;3.17;;
16430;SDS011;8325;49.284;7.238;2024-02-21T10:33:35;7.10;;;3.00;;
16430;SDS011;8325;49.284;7.238;2024-02-21T10:37:47;4.97;;;3.00;;
16430;SDS011;8325;49.284;7.238;2024-02-21T10:42:02;6.80;;;3.03;;
16430;SDS011;8325;49.284;7.238;2024-02-21T10:46:15;9.60;;;3.50;;
16430;SDS011;8325;49.284;7.238;2024-02-21T10:50:30;5.00;;;2.42;;
16430;SDS011;8325;49.284;7.238;2024-02-21T10:54:45;5.53;;;2.50;;
16430;SDS011;8325;49.284;7.238;2024-02-21T10:59:04;5.60;;;2.75;;
16430;SDS011;8325;49.284;7.238;2024-02-21T11:03:16;5.53;;;2.60;;
16430;SDS011;8325;49.284;7.238;2024-02-21T11:07:29;7.13;;;2.72;;
16430;SDS011;8325;49.284;7.238;2024-02-21T11:11:44;11.20;;;3.15;;
16430;SDS011;8325;49.284;7.238;2024-02-21T11:16:05;5.10;;;2.83;;
16430;SDS011;8325;49.284;7.238;2024-02-21T11:20:19;7.35;;;2.58;;
16430;SDS011;8325;49.284;7.238;2024-02-21T11:24:34;6.57;;;2.83;;
16430;SDS011;8325;49.284;7.238;2024-02-21T11:28:55;6.50;;;2.53;;
16430;SDS011;8325;49.284;7.238;2024-02-21T11:33:07;6.55;;;2.70;;
16430;SDS011;8325;49.284;7.238;2024-02-21T11:37:19;6.18;;;3.30;;
16430;SDS011;8325;49.284;7.238;2024-02-21T11:41:31;6.22;;;2.90;;
16430;SDS011;8325;49.284;7.238;2024-02-21T11:45:43;7.85;;;2.83;;
16430;SDS011;8325;49.284;7.238;2024-02-21T11:49:54;6.90;;;3.00;;
16430;SDS011;8325;49.284;7.238;2024-02-21T11:54:06;6.40;;;2.67;;
16430;SDS011;8325;49.284;7.238;2024-02-21T11:58:18;7.70;;;2.95;;
16430;SDS011;8325;49.284;7.238;2024-02-21T12:02:30;5.40;;;3.00;;
16430;SDS011;8325;49.284;7.238;2024-02-21T12:06:41;6.97;;;2.97;;
16430;SDS011;8325;49.284;7.238;2024-02-21T12:10:53;6.97;;;3.10;;
16430;SDS011;8325;49.284;7.238;2024-02-21T12:15:05;5.97;;;3.22;;
16430;SDS011;8325;49.284;7.238;2024-02-21T12:19:19;5.25;;;2.58;;
16430;SDS011;8325;49.284;7.238;2024-02-21T12:23:31;8.10;;;2.95;;
16430;SDS011;8325;49.284;7.238;2024-02-21T12:27:42;6.43;;;2.78;;
16430;SDS011;8325;49.284;7.238;2024-02-21T12:31:54;5.35;;;3.00;;
16430;SDS011;8325;49.284;7.238;2024-02-21T12:36:06;7.38;;;3.10;;
16430;SDS011;8325;49.284;7.238;2024-02-21T12:40:20;6.40;;;2.63;;
16430;SDS011;8325;49.284;7.238;2024-02-21T12:44:31;6.00;;;2.85;;
16430;SDS011;8325;49.284;7.238;2024-02-21T12:48:44;6.47;;;2.90;;
16430;SDS011;8325;49.284;7.238;2024-02-21T12:52:55;7.25;;;2.97;;
16430;SDS011;8325;49.284;7.238;2024-02-21T12:57:07;5.20;;;3.08;;
16430;SDS011;8325;49.284;7.238;2024-02-21T13:01:19;6.88;;;2.90;;
16430;SDS011;8325;49.284;7.238;2024-02-21T13:05:32;4.93;;;2.63;;
16430;SDS011;8325;49.284;7.238;2024-02-21T13:09:44;5.45;;;2.85;;
16430;SDS011;8325;49.284;7.238;2024-02-21T13:13:56;4.85;;;2.90;;
16430;SDS011;8325;49.284;7.238;2024-02-21T13:18:08;7.20;;;3.00;;
16430;SDS011;8325;49.284;7.238;2024-02-21T13:22:20;6.90;;;3.00;;
16430;SDS011;8325;49.284;7.238;2024-02-21T13:26:33;6.30;;;2.97;;
16430;SDS011;8325;49.284;7.238;2024-02-21T13:30:45;7.53;;;2.78;;
16430;SDS011;8325;49.284;7.238;2024-02-21T13:34:57;7.13;;;3.17;;
16430;SDS011;8325;49.284;7.238;2024-02-21T13:39:11;5.90;;;2.50;;
16430;SDS011;8325;49.284;7.238;2024-02-21T13:43:26;6.82;;;2.60;;
16430;SDS011;8325;49.284;7.238;2024-02-21T13:47:38;8.23;;;3.40;;
16430;SDS011;8325;49.284;7.238;2024-02-21T13:51:50;4.32;;;2.65;;
16430;SDS011;8325;49.284;7.238;2024-02-21T13:56:01;4.78;;;2.70;;
16430;SDS011;8325;49.284;7.238;2024-02-21T14:00:13;6.65;;;2.60;;
16430;SDS011;8325;49.284;7.238;2024-02-21T14:04:25;6.57;;;2.40;;
16430;SDS011;8325;49.284;7.238;2024-02-21T14:08:37;6.65;;;2.00;;
16430;SDS011;8325;49.284;7.238;2024-02-21T14:12:50;5.72;;;2.25;;
16430;SDS011;8325;49.284;7.238;2024-02-21T14:17:03;5.95;;;2.88;;
16430;SDS011;8325;49.284;7.238;2024-02-21T14:21:18;6.45;;;2.58;;
16430;SDS011;8325;49.284;7.238;2024-02-21T14:25:30;6.88;;;2.90;;
16430;SDS011;8325;49.284;7.238;2024-02-21T14:29:42;7.60;;;2.60;;
16430;SDS011;8325;49.284;7.238;2024-02-21T14:33:55;6.40;;;2.42;;
16430;SDS011;8325;49.284;7.238;2024-02-21T14:38:06;3.13;;;2.25;;
16430;SDS011;8325;49.284;7.238;2024-02-21T14:42:18;3.38;;;2.30;;
16430;SDS011;8325;49.284;7.238;2024-02-21T14:46:30;7.18;;;2.50;;
16430;SDS011;8325;49.284;7.238;2024-02-21T14:50:42;8.68;;;3.67;;
16430;SDS011;8325;49.284;7.238;2024-02-21T14:54:54;6.88;;;3.03;;
16430;SDS011;8325;49.284;7.238;2024-02-21T14:59:05;9.07;;;3.70;;
16430;SDS011;8325;49.284;7.238;2024-02-21T15:03:28;6.60;;;2.85;;
16430;SDS011;8325;49.284;7.238;2024-02-21T15:07:40;4.70;;;2.72;;
16430;SDS011;8325;49.284;7.238;2024-02-21T15:11:53;3.88;;;2.22;;
16430;SDS011;8325;49.284;7.238;2024-02-21T15:16:05;3.58;;;2.25;;
16430;SDS011;8325;49.284;7.238;2024-02-21T15:20:17;5.45;;;2.30;;
16430;SDS011;8325;49.284;7.238;2024-02-21T15:24:29;4.25;;;2.08;;
16430;SDS011;8325;49.284;7.238;2024-02-21T15:28:41;6.07;;;2.65;;
16430;SDS011;8325;49.284;7.238;2024-02-21T15:32:52;5.60;;;3.25;;
16430;SDS011;8325;49.284;7.238;2024-02-21T15:37:06;5.20;;;2.60;;
16430;SDS011;8325;49.284;7.238;2024-02-21T15:41:18;4.05;;;2.00;;
16430;SDS011;8325;49.284;7.238;2024-02-21T15:45:32;3.65;;;2.20;;
16430;SDS011;8325;49.284;7.238;2024-02-21T15:49:44;5.45;;;2.58;;
16430;SDS011;8325;49.284;7.238;2024-02-21T15:53:56;7.20;;;4.38;;
16430;SDS011;8325;49.284;7.238;2024-02-21T15:58:08;6.57;;;4.15;;
16430;SDS011;8325;49.284;7.238;2024-02-21T16:02:19;14.82;;;8.40;;
16430;SDS011;8325;49.284;7.238;2024-02-21T16:06:32;11.52;;;6.55;;
16430;SDS011;8325;49.284;7.238;2024-02-21T16:10:44;13.63;;;5.53;;
16430;SDS011;8325;49.284;7.238;2024-02-21T16:14:56;9.82;;;5.38;;
16430;SDS011;8325;49.284;7.238;2024-02-21T16:19:07;5.30;;;3.00;;
16430;SDS011;8325;49.284;7.238;2024-02-21T16:23:19;8.75;;;3.88;;
16430;SDS011;8325;49.284;7.238;2024-02-21T16:27:30;10.50;;;4.25;;
16430;SDS011;8325;49.284;7.238;2024-02-21T16:31:42;19.15;;;6.70;;
16430;SDS011;8325;49.284;7.238;2024-02-21T16:35:54;16.10;;;6.03;;
16430;SDS011;8325;49.284;7.238;2024-02-21T16:40:06;5.63;;;2.80;;
16430;SDS011;8325;49.284;7.238;2024-02-21T16:44:18;3.28;;;1.90;;
16430;SDS011;8325;49.284;7.238;2024-02-21T16:48:32;7.05;;;2.50;;
16430;SDS011;8325;49.284;7.238;2024-02-21T16:52:45;5.82;;;3.10;;
16430;SDS011;8325;49.284;7.238;2024-02-21T16:56:57;9.38;;;2.88;;
16430;SDS011;8325;49.284;7.238;2024-02-21T17:01:08;2.83;;;1.77;;
16430;SDS011;8325;49.284;7.238;2024-02-21T17:05:24;3.90;;;1.90;;
16430;SDS011;8325;49.284;7.238;2024-02-21T17:09:37;12.10;;;7.07;;
16430;SDS011;8325;49.284;7.238;2024-02-21T17:13:50;12.63;;;5.57;;
16430;SDS011;8325;49.284;7.238;2024-02-21T17:18:02;5.20;;;2.83;;
16430;SDS011;8325;49.284;7.238;2024-02-21T17:22:14;6.63;;;3.80;;
16430;SDS011;8325;49.284;7.238;2024-02-21T17:26:26;5.70;;;2.70;;
16430;SDS011;8325;49.284;7.238;2024-02-21T17:30:37;4.85;;;1.90;;
16430;SDS011;8325;49.284;7.238;2024-02-21T17:34:50;2.72;;;2.00;;
16430;SDS011;8325;49.284;7.238;2024-02-21T17:39:01;3.08;;;1.65;;
16430;SDS011;8325;49.284;7.238;2024-02-21T17:43:14;4.93;;;1.98;;
16430;SDS011;8325;49.284;7.238;2024-02-21T17:47:25;5.13;;;2.13;;
16430;SDS011;8325;49.284;7.238;2024-02-21T17:51:37;4.30;;;1.95;;
16430;SDS011;8325;49.284;7.238;2024-02-21T17:55:48;3.42;;;2.10;;
16430;SDS011;8325;49.284;7.238;2024-02-21T18:00:00;3.90;;;2.00;;
16430;SDS011;8325;49.284;7.238;2024-02-21T18:04:22;3.42;;;1.92;;
16430;SDS011;8325;49.284;7.238;2024-02-21T18:08:34;4.22;;;2.47;;
16430;SDS011;8325;49.284;7.238;2024-02-21T18:12:46;3.38;;;1.85;;
16430;SDS011;8325;49.284;7.238;2024-02-21T18:16:58;2.75;;;2.17;;
16430;SDS011;8325;49.284;7.238;2024-02-21T18:21:09;5.45;;;2.05;;
16430;SDS011;8325;49.284;7.238;2024-02-21T18:25:21;3.83;;;2.20;;
16430;SDS011;8325;49.284;7.238;2024-02-21T18:29:35;3.72;;;2.53;;
16430;SDS011;8325;49.284;7.238;2024-02-21T18:33:51;6.25;;;3.40;;
16430;SDS011;8325;49.284;7.238;2024-02-21T18:38:03;4.28;;;2.30;;
16430;SDS011;8325;49.284;7.238;2024-02-21T18:42:14;4.35;;;2.60;;
16430;SDS011;8325;49.284;7.238;2024-02-21T18:46:26;5.88;;;2.67;;
16430;SDS011;8325;49.284;7.238;2024-02-21T18:50:38;7.47;;;4.20;;
16430;SDS011;8325;49.284;7.238;2024-02-21T18:54:50;12.75;;;6.40;;
16430;SDS011;8325;49.284;7.238;2024-02-21T18:59:02;4.93;;;3.08;;
16430;SDS011;8325;49.284;7.238;2024-02-21T19:03:15;4.35;;;2.92;;
16430;SDS011;8325;49.284;7.238;2024-02-21T19:07:27;5.20;;;2.65;;
16430;SDS011;8325;49.284;7.238;2024-02-21T19:11:39;6.60;;;2.67;;
16430;SDS011;8325;49.284;7.238;2024-02-21T19:15:51;4.25;;;2.80;;
16430;SDS011;8325;49.284;7.238;2024-02-21T19:20:03;6.07;;;3.33;;
16430;SDS011;8325;49.284;7.238;2024-02-21T19:24:15;5.68;;;3.38;;
16430;SDS011;8325;49.284;7.238;2024-02-21T19:28:27;6.10;;;3.50;;
16430;SDS011;8325;49.284;7.238;2024-02-21T19:32:40;6.80;;;3.33;;
16430;SDS011;8325;49.284;7.238;2024-02-21T19:36:52;5.13;;;3.17;;
16430;SDS011;8325;49.284;7.238;2024-02-21T19:41:04;5.10;;;3.10;;
16430;SDS011;8325;49.284;7.238;2024-02-21T19:45:17;5.18;;;3.40;;
16430;SDS011;8325;49.284;7.238;2024-02-21T19:49:29;8.32;;;3.40;;
16430;SDS011;8325;49.284;7.238;2024-02-21T19:53:41;4.05;;;3.10;;
16430;SDS011;8325;49.284;7.238;2024-02-21T19:57:53;6.50;;;3.33;;
16430;SDS011;8325;49.284;7.238;2024-02-21T20:02:05;3.90;;;2.90;;
16430;SDS011;8325;49.284;7.238;2024-02-21T20:06:17;5.38;;;3.17;;
16430;SDS011;8325;49.284;7.238;2024-02-21T20:10:29;4.68;;;3.22;;
16430;SDS011;8325;49.284;7.238;2024-02-21T20:14:41;4.30;;;3.17;;
16430;SDS011;8325;49.284;7.238;2024-02-21T20:18:52;6.10;;;3.50;;
16430;SDS011;8325;49.284;7.238;2024-02-21T20:23:04;5.28;;;3.47;;
16430;SDS011;8325;49.284;7.238;2024-02-21T20:27:18;7.45;;;3.50;;
16430;SDS011;8325;49.284;7.238;2024-02-21T20:31:30;6.40;;;3.50;;
16430;SDS011;8325;49.284;7.238;2024-02-21T20:35:41;7.10;;;3.58;;
16430;SDS011;8325;49.284;7.238;2024-02-21T20:39:53;6.68;;;3.50;;
16430;SDS011;8325;49.284;7.238;2024-02-21T20:44:05;5.40;;;3.63;;
16430;SDS011;8325;49.284;7.238;2024-02-21T20:48:17;4.40;;;3.20;;
16430;SDS011;8325;49.284;7.238;2024-02-21T20:52:28;5.03;;;3.42;;
16430;SDS011;8325;49.284;7.238;2024-02-21T20:56:40;5.22;;;3.58;;
16430;SDS011;8325;49.284;7.238;2024-02-21T21:00:52;5.40;;;3.50;;
16430;SDS011;8325;49.284;7.238;2024-02-21T21:05:04;6.50;;;3.50;;
16430;SDS011;8325;49.284;7.238;2024-02-21T21:09:15;6.45;;;3.63;;
16430;SDS011;8325;49.284;7.238;2024-02-21T21:13:30;4.93;;;3.67;;
16430;SDS011;8325;49.284;7.238;2024-02-21T21:17:46;4.85;;;3.53;;
16430;SDS011;8325;49.284;7.238;2024-02-21T21:21:59;5.43;;;3.70;;
16430;SDS011;8325;49.284;7.238;2024-02-21T21:26:12;5.10;;;4.03;;
16430;SDS011;8325;49.284;7.238;2024-02-21T21:30:23;4.60;;;3.38;;
16430;SDS011;8325;49.284;7.238;2024-02-21T21:34:35;4.70;;;2.90;;
16430;SDS011;8325;49.284;7.238;2024-02-21T21:38:47;6.32;;;3.38;;
16430;SDS011;8325;49.284;7.238;2024-02-21T21:43:01;5.35;;;3.38;;
16430;SDS011;8325;49.284;7.238;2024-02-21T21:47:13;6.20;;;3.25;;
16430;SDS011;8325;49.284;7.238;2024-02-21T21:51:25;4.22;;;3.20;;
16430;SDS011;8325;49.284;7.238;2024-02-21T21:55:39;6.10;;;3.65;;
16430;SDS011;8325;49.284;7.238;2024-02-21T21:59:51;5.00;;;3.33;;
16430;SDS011;8325;49.284;7.238;2024-02-21T22:04:03;5.30;;;3.42;;
16430;SDS011;8325;49.284;7.238;2024-02-21T22:08:15;4.45;;;3.13;;
16430;SDS011;8325;49.284;7.238;2024-02-21T22:12:26;6.00;;;3.65;;
16430;SDS011;8325;49.284;7.238;2024-02-21T22:16:38;5.22;;;3.03;;
16430;SDS011;8325;49.284;7.238;2024-02-21T22:20:50;5.00;;;3.35;;
16430;SDS011;8325;49.284;7.238;2024-02-21T22:25:02;5.07;;;3.53;;
16430;SDS011;8325;49.284;7.238;2024-02-21T22:29:14;6.18;;;3.30;;
